aviador You're here:

CYPX Decoded Metar

PUVIRGNITUQ in QC, CANADA
Report Time2018-02-25 15:12:00
UTC Time2018-02-25 15:27:35
Flight Rules lifr LIFR
Wind180° at 19 kt
W.Decomp.*RWY 19: 18.7 kt HW 3.6 kt RCW
W.Rank180° ranks 7
Current wind is above 180° avg. (12.6)
Visibility1207 m
Phenomena:Light Snow
Clouds:N/A
Expected CloudBase > 800 ft AGL from Temp-Dew spread
Ceiling1,000 ft
Temp-16°C (ISA -31)
Dew Point-18°C (85% RH)
AAT-26.3°C
QNH1003 hPa
Density Alt-3,471 ft
Elevation75 ft
Report Wrong Elevation
Raw Report
SPECI CYPX 251512Z AUTO 18019KT 3/4SM -SN VV010 M16/M18 A2962 RMK SLP036=

Extra information for CYPX:More info

Metar Taf Metar & Taf Last 4 Metars F.Rules Stats Wind Profile Meteogram Temp Stats Airport Information Weather charts Add Link Nearby VenuesMetar ALERT Operation Metar Decoded Social comments